Airfield :
LOGIN :

Register | Disclaimer

   EN    FR    IT 

 










Legend :    VFR   Marginal VFR   IFR   Intensive IFR   Very Intensive IFR
Visi :
Ceiling :
>= 8 km
>= 3000ft
5 to 8 km
1000 to 3000 ft
1500m to 5 km
500 to 1000 ft
800 to 1500m
200 to 500 ft
< 800m
< 200 ft
Symbols :   Thunderstorms  Fog  Heavy snow  Heavy precipitations  Wind > 20 kt
SIGMETs :     Misc.  Thunderstorms  Icing  Turbulence  Mountain Waves  Volcanic Ashes






- Airport Elevation : 148 ft
- IATA code : KHE


UKOH - Chernobayevka

CURRENT METAR :
  • 221430Z 25008MPS 9999 SCT043 07/M03 Q1013 R21/CLRD65 NOSIG

EXPIRED METARs :
  • 221400Z 25009MPS 9999 SCT066 07/M04 Q1013 R21/CLRD65 NOSIG
  • 221330Z 28007MPS CAVOK 09/M08 Q1014 R21/CLRD65 NOSIG
  • 221300Z 29009MPS CAVOK 09/M08 Q1014 R21/CLRD65 NOSIG
  • 221230Z 29008G14MPS 250V310 CAVOK 08/M04 Q1015 R21/CLRD65 NOSIG
  • 221200Z 29008MPS CAVOK 07/M05 Q1015 R21/CLRD65 NOSIG

TAF TAF UKOH
Valid from the 22 at 15:00 until the 23 at 00:00 UTC


221402Z 2215/2224 28008G16MPS 9999 SCT007 BKN025CB TX05/2215Z TN01/2224Z



MET'MAP, your aeronautical weather chart ! - Copyright ORBIFLY December 2007 - Disclaimer

ORBIFLY MET'MAP TEAM :

Programming & Development : Alexandra Zaïnal
Concept & original design : Baudouin d'Aumeries
Assistance for programming : Marc-Olivier Méhu
Technical & hardware support : Manuel Goepfert

Contact : metmap@orbifly.com




SOURCES & CREDITS :

   NOAA